Time;durP1;ratioP1;P1;durP2;ratioP2;P2;SDS_P1;SDS_P2;PMS_P1;PMS_P2;Temp;Humidity;BMP_temperature;BMP_pressure;BME280_temperature;BME280_humidity;BME280_pressure;Samples;Min_cycle;Max_cycle;Signal;HPM_P1;HPM_P2
2022/03/23 00:00:37;;;;;;;25.90;18.57;;;;;;;;;;5026316;28;20307;-77
2022/03/23 00:03:06;;;;;;;23.00;18.53;;;;;;;;;;5030032;28;20229;-77
2022/03/23 00:05:33;;;;;;;24.47;18.40;;;;;;;;;;5026483;28;20253;-77
2022/03/23 00:08:01;;;;;;;24.57;18.10;;;;;;;;;;5025404;28;20210;-77
2022/03/23 00:10:29;;;;;;;23.37;18.03;;;;;;;;;;5032653;28;20224;-77
2022/03/23 00:12:58;;;;;;;22.10;18.23;;;;;;;;;;5038739;28;20208;-77
2022/03/23 00:15:25;;;;;;;23.97;18.50;;;;;;;;;;5027414;28;20202;-77
2022/03/23 00:17:52;;;;;;;26.87;19.43;;;;;;;;;;5031427;28;20260;-77
2022/03/23 00:20:21;;;;;;;25.67;19.37;;;;;;;;;;5032162;28;20265;-77
2022/03/23 00:22:48;;;;;;;24.70;19.03;;;;;;;;;;5025651;28;20293;-77
2022/03/23 00:25:16;;;;;;;25.03;18.10;;;;;;;;;;5031762;28;20264;-77
2022/03/23 00:27:43;;;;;;;23.30;18.00;;;;;;;;;;5037255;28;20273;-77
2022/03/23 00:30:10;;;;;;;23.63;17.93;;;;;;;;;;5033194;28;20259;-77
2022/03/23 00:32:38;;;;;;;25.63;18.17;;;;;;;;;;5031849;28;20660;-77
2022/03/23 00:35:05;;;;;;;23.10;18.20;;;;;;;;;;5031958;28;20256;-77
2022/03/23 00:37:34;;;;;;;23.40;18.00;;;;;;;;;;5031315;28;20225;-77
2022/03/23 00:40:01;;;;;;;20.93;18.17;;;;;;;;;;5032131;28;20244;-77
2022/03/23 00:42:28;;;;;;;20.63;17.23;;;;;;;;;;5031773;28;20220;-77
2022/03/23 00:44:55;;;;;;;21.67;18.03;;;;;;;;;;5032567;28;20257;-77
2022/03/23 00:47:23;;;;;;;22.40;16.80;;;;;;;;;;5030254;28;20205;-77
2022/03/23 00:49:50;;;;;;;22.67;17.03;;;;;;;;;;5035428;28;20269;-77
2022/03/23 00:52:17;;;;;;;21.77;16.97;;;;;;;;;;5031665;28;20292;-77
2022/03/23 00:54:46;;;;;;;23.27;18.57;;;;;;;;;;5032587;28;20279;-77
2022/03/23 00:57:13;;;;;;;20.43;16.57;;;;;;;;;;5031063;28;20304;-77
2022/03/23 00:59:41;;;;;;;24.63;17.33;;;;;;;;;;5033110;28;20201;-76
2022/03/23 01:02:10;;;;;;;22.43;17.17;;;;;;;;;;5031367;28;20209;-76
2022/03/23 01:04:37;;;;;;;23.73;17.30;;;;;;;;;;5031619;28;20217;-76
2022/03/23 01:07:05;;;;;;;24.50;18.17;;;;;;;;;;5030906;28;20210;-76
2022/03/23 01:09:32;;;;;;;21.87;17.67;;;;;;;;;;5031724;28;20206;-76
2022/03/23 01:12:02;;;;;;;25.17;18.80;;;;;;;;;;5031691;28;20212;-76
2022/03/23 01:14:29;;;;;;;23.47;17.33;;;;;;;;;;5035384;28;20221;-78
2022/03/23 01:16:56;;;;;;;23.17;18.13;;;;;;;;;;5031976;28;20256;-75
2022/03/23 01:19:27;;;;;;;22.40;17.53;;;;;;;;;;5032062;28;20202;-75
2022/03/23 01:21:55;;;;;;;23.17;17.77;;;;;;;;;;5031418;28;20237;-75
2022/03/23 01:24:22;;;;;;;26.60;17.77;;;;;;;;;;5032712;28;20317;-75
2022/03/23 01:26:49;;;;;;;22.60;18.30;;;;;;;;;;5033556;28;20232;-77
2022/03/23 01:29:18;;;;;;;21.40;17.10;;;;;;;;;;5033969;28;20202;-75
2022/03/23 01:31:46;;;;;;;22.70;17.80;;;;;;;;;;5031420;28;20247;-75
2022/03/23 01:34:13;;;;;;;23.57;16.87;;;;;;;;;;5032646;28;20270;-77
2022/03/23 01:36:40;;;;;;;23.47;18.30;;;;;;;;;;5031167;28;20210;-75
2022/03/23 01:39:08;;;;;;;21.50;17.90;;;;;;;;;;5034046;28;20296;-75
2022/03/23 01:41:36;;;;;;;22.90;17.80;;;;;;;;;;5031524;28;20213;-77
2022/03/23 01:44:13;;;;;;;22.20;16.80;;;;;;;;;;5032411;28;20218;-77
2022/03/23 01:46:59;;;;;;;21.47;17.40;;;;;;;;;;5030868;28;20213;-75
2022/03/23 01:49:26;;;;;;;20.77;17.00;;;;;;;;;;5031492;28;20267;-77
2022/03/23 01:51:53;;;;;;;22.30;17.10;;;;;;;;;;5031454;28;20240;-75
2022/03/23 01:54:20;;;;;;;25.57;17.30;;;;;;;;;;5032038;28;20222;-75
2022/03/23 01:56:48;;;;;;;23.17;17.23;;;;;;;;;;5030925;28;20297;-77
2022/03/23 01:59:16;;;;;;;19.80;16.30;;;;;;;;;;5033036;28;20292;-77
2022/03/23 02:01:44;;;;;;;21.23;16.13;;;;;;;;;;5035042;28;20265;-75
2022/03/23 02:04:11;;;;;;;20.57;16.57;;;;;;;;;;5034782;28;20245;-77
2022/03/23 02:06:38;;;;;;;21.30;15.77;;;;;;;;;;5037116;28;20204;-75
2022/03/23 02:09:06;;;;;;;20.87;15.50;;;;;;;;;;5034936;28;20215;-77
2022/03/23 02:11:34;;;;;;;19.27;15.27;;;;;;;;;;5035868;28;20202;-75
2022/03/23 02:14:01;;;;;;;20.83;16.30;;;;;;;;;;5035499;28;20222;-77
2022/03/23 02:16:28;;;;;;;19.47;15.83;;;;;;;;;;5037022;28;20194;-77
2022/03/23 02:18:56;;;;;;;19.83;15.97;;;;;;;;;;5051274;28;20265;-75
2022/03/23 02:21:24;;;;;;;19.97;15.07;;;;;;;;;;5048075;28;20296;-75
2022/03/23 02:23:52;;;;;;;18.53;14.83;;;;;;;;;;5036236;28;20264;-75
2022/03/23 02:26:19;;;;;;;22.13;15.70;;;;;;;;;;5040754;28;20233;-75
2022/03/23 02:28:46;;;;;;;20.33;15.77;;;;;;;;;;5034826;28;20217;-75
2022/03/23 02:31:14;;;;;;;22.80;16.17;;;;;;;;;;5037118;28;20204;-75
2022/03/23 02:33:41;;;;;;;22.43;16.83;;;;;;;;;;5036221;28;20256;-75
2022/03/23 02:36:08;;;;;;;21.27;16.17;;;;;;;;;;5039977;28;20202;-75
2022/03/23 02:38:35;;;;;;;20.47;15.90;;;;;;;;;;5035612;28;20217;-75
2022/03/23 02:41:04;;;;;;;26.93;21.33;;;;;;;;;;5030526;28;20220;-75
2022/03/23 02:43:31;;;;;;;19.33;16.00;;;;;;;;;;5035592;28;20238;-75
2022/03/23 02:45:58;;;;;;;19.10;15.77;;;;;;;;;;5032294;28;20230;-75
2022/03/23 02:48:26;;;;;;;21.00;16.60;;;;;;;;;;5028322;28;20214;-75
2022/03/23 02:50:53;;;;;;;22.60;16.53;;;;;;;;;;5038335;28;20616;-75
2022/03/23 03:01:54;;;;;;;24.83;16.70;;;;;;;;;;5033982;28;20201;-77
2022/03/23 03:04:22;;;;;;;22.97;16.63;;;;;;;;;;5033965;28;20230;-75
2022/03/23 03:06:49;;;;;;;19.73;16.00;;;;;;;;;;5038724;28;20242;-75
2022/03/23 03:09:17;;;;;;;20.47;16.27;;;;;;;;;;5034011;28;20312;-75
2022/03/23 03:11:47;;;;;;;20.03;15.90;;;;;;;;;;5037901;28;20206;-75
2022/03/23 03:14:14;;;;;;;20.40;15.50;;;;;;;;;;5033836;28;20230;-77
2022/03/23 03:16:41;;;;;;;21.23;16.20;;;;;;;;;;5036911;28;20285;-77
2022/03/23 03:19:10;;;;;;;18.47;15.20;;;;;;;;;;5033514;28;20210;-77
2022/03/23 03:21:38;;;;;;;20.90;15.60;;;;;;;;;;5036822;28;20217;-77
2022/03/23 03:24:06;;;;;;;23.03;15.47;;;;;;;;;;5033178;28;20261;-75
2022/03/23 03:26:33;;;;;;;21.47;16.43;;;;;;;;;;5034279;28;20233;-75
2022/03/23 03:29:04;;;;;;;19.70;15.90;;;;;;;;;;5032570;28;20213;-75
2022/03/23 03:34:35;;;;;;;21.53;16.00;;;;;;;;;;5027231;28;20200;-77
2022/03/23 03:37:02;;;;;;;23.23;17.03;;;;;;;;;;5032681;28;20206;-76
2022/03/23 03:39:30;;;;;;;22.47;16.47;;;;;;;;;;5032602;28;20210;-76
2022/03/23 03:41:57;;;;;;;20.83;15.60;;;;;;;;;;5040390;28;20316;-77
2022/03/23 03:44:26;;;;;;;19.87;15.33;;;;;;;;;;5032822;28;20226;-76
2022/03/23 03:46:53;;;;;;;18.27;15.10;;;;;;;;;;5031858;28;20225;-76
2022/03/23 03:49:20;;;;;;;21.47;16.17;;;;;;;;;;5033157;28;20241;-76
2022/03/23 03:51:48;;;;;;;21.53;16.00;;;;;;;;;;5037840;28;20300;-76
2022/03/23 03:54:15;;;;;;;19.53;15.23;;;;;;;;;;5026791;28;20245;-76
2022/03/23 03:56:42;;;;;;;21.33;16.03;;;;;;;;;;5036827;28;20292;-76
2022/03/23 03:59:09;;;;;;;23.07;16.03;;;;;;;;;;5032952;28;20213;-76
2022/03/23 04:01:38;;;;;;;20.67;14.93;;;;;;;;;;5032826;28;20236;-76
2022/03/23 04:04:05;;;;;;;22.17;16.30;;;;;;;;;;5033803;28;20222;-76
2022/03/23 04:06:32;;;;;;;22.50;16.73;;;;;;;;;;5032468;28;20224;-76
2022/03/23 04:09:00;;;;;;;21.97;16.13;;;;;;;;;;5032644;28;20237;-76
2022/03/23 04:11:30;;;;;;;21.80;15.70;;;;;;;;;;5032996;28;20223;-76
2022/03/23 04:13:57;;;;;;;21.27;15.53;;;;;;;;;;5033064;28;20229;-76
2022/03/23 04:16:24;;;;;;;20.27;15.87;;;;;;;;;;5039283;28;20292;-76
2022/03/23 04:18:53;;;;;;;21.23;16.03;;;;;;;;;;5031567;28;20293;-76
2022/03/23 04:21:20;;;;;;;19.90;15.10;;;;;;;;;;5037461;28;20228;-76
2022/03/23 04:23:47;;;;;;;21.80;16.23;;;;;;;;;;5032323;28;20321;-76
2022/03/23 04:26:14;;;;;;;21.90;15.23;;;;;;;;;;5036210;28;20232;-76
2022/03/23 04:28:41;;;;;;;20.17;15.70;;;;;;;;;;5031827;28;20233;-76
2022/03/23 04:31:09;;;;;;;24.07;16.03;;;;;;;;;;5035584;28;20201;-76
2022/03/23 04:33:36;;;;;;;21.77;16.20;;;;;;;;;;5031957;28;20226;-76
2022/03/23 04:36:06;;;;;;;20.63;15.13;;;;;;;;;;5034326;28;20193;-76
2022/03/23 04:38:33;;;;;;;19.40;15.37;;;;;;;;;;5032832;28;20213;-77
2022/03/23 04:41:00;;;;;;;23.13;16.93;;;;;;;;;;5032158;28;20306;-76
2022/03/23 04:43:27;;;;;;;20.30;15.47;;;;;;;;;;5032726;28;20288;-76
2022/03/23 04:45:54;;;;;;;20.73;16.10;;;;;;;;;;5029728;28;20221;-76
2022/03/23 04:48:22;;;;;;;20.80;15.77;;;;;;;;;;5028904;28;20289;-75
2022/03/23 04:50:49;;;;;;;20.27;15.67;;;;;;;;;;5037811;28;20289;-76
2022/03/23 04:53:18;;;;;;;22.30;15.60;;;;;;;;;;5027629;28;20206;-77
2022/03/23 04:55:45;;;;;;;22.17;15.60;;;;;;;;;;5032173;28;20288;-76
2022/03/23 04:58:12;;;;;;;19.60;14.40;;;;;;;;;;5031783;28;20206;-75
2022/03/23 05:00:40;;;;;;;21.87;15.57;;;;;;;;;;5032927;28;20204;-76
2022/03/23 05:03:07;;;;;;;20.77;15.40;;;;;;;;;;5031564;28;20216;-76
2022/03/23 05:05:34;;;;;;;19.83;15.10;;;;;;;;;;5030926;28;20603;-76
2022/03/23 05:08:01;;;;;;;20.53;15.50;;;;;;;;;;5030764;28;20240;-76
2022/03/23 05:10:30;;;;;;;20.17;14.97;;;;;;;;;;5031790;28;20198;-76
2022/03/23 05:12:57;;;;;;;20.30;15.03;;;;;;;;;;5031142;28;20206;-76
2022/03/23 05:15:24;;;;;;;21.97;15.23;;;;;;;;;;5030591;28;20221;-76
2022/03/23 05:17:51;;;;;;;23.50;15.20;;;;;;;;;;5027364;28;20202;-76
2022/03/23 05:20:20;;;;;;;22.40;16.23;;;;;;;;;;5031263;28;20205;-76
2022/03/23 05:22:47;;;;;;;25.13;15.70;;;;;;;;;;5031365;28;20201;-76
2022/03/23 05:25:14;;;;;;;21.43;15.57;;;;;;;;;;5031330;28;20253;-76
2022/03/23 05:27:43;;;;;;;19.50;15.10;;;;;;;;;;5029620;28;20213;-76
2022/03/23 05:30:11;;;;;;;21.47;15.27;;;;;;;;;;5028419;28;20202;-76
2022/03/23 05:32:40;;;;;;;19.77;15.77;;;;;;;;;;5024279;28;20665;-77
2022/03/23 05:35:08;;;;;;;21.40;15.83;;;;;;;;;;5084686;22;20226;-78
2022/03/23 05:37:35;;;;;;;20.90;15.20;;;;;;;;;;5107252;28;20291;-78
2022/03/23 05:40:03;;;;;;;27.77;17.10;;;;;;;;;;5108213;28;20234;-76
2022/03/23 05:42:30;;;;;;;30.07;17.03;;;;;;;;;;5108688;28;20222;-80
2022/03/23 21:00:15;;;;;;;18.20;12.60;;;;;;;;;;5102205;27;20539;-79
2022/03/23 21:02:45;;;;;;;17.77;13.30;;;;;;;;;;5086389;28;20212;-79
2022/03/23 21:05:13;;;;;;;18.03;13.27;;;;;;;;;;5078909;28;20266;-79
2022/03/23 21:07:43;;;;;;;18.83;13.77;;;;;;;;;;5069640;28;20209;-79
2022/03/23 21:10:10;;;;;;;16.03;13.70;;;;;;;;;;5072859;28;20204;-80
2022/03/23 21:12:39;;;;;;;18.63;13.03;;;;;;;;;;5072879;28;20296;-79
2022/03/23 21:15:10;;;;;;;16.33;13.20;;;;;;;;;;5071460;28;20294;-79
2022/03/23 21:17:39;;;;;;;15.67;13.33;;;;;;;;;;5069509;28;20212;-79
2022/03/23 21:20:10;;;;;;;18.37;13.63;;;;;;;;;;5068456;28;20232;-79
2022/03/23 21:22:37;;;;;;;16.50;13.60;;;;;;;;;;5066685;28;20204;-79
2022/03/23 21:25:05;;;;;;;18.23;14.60;;;;;;;;;;5066809;28;20278;-79
2022/03/23 21:27:35;;;;;;;18.20;13.97;;;;;;;;;;5074060;28;20218;-79
2022/03/23 21:30:03;;;;;;;18.47;15.00;;;;;;;;;;5061775;28;20220;-78
2022/03/23 21:32:32;;;;;;;18.03;14.13;;;;;;;;;;5066273;28;20304;-79
2022/03/23 21:35:04;;;;;;;18.50;14.20;;;;;;;;;;5063807;28;20274;-79
2022/03/23 21:37:31;;;;;;;20.10;14.60;;;;;;;;;;5068337;28;20215;-79
2022/03/23 21:40:01;;;;;;;18.07;14.10;;;;;;;;;;5067330;28;20662;-79
2022/03/23 21:42:31;;;;;;;18.30;15.07;;;;;;;;;;5065282;28;20227;-79
2022/03/23 21:44:58;;;;;;;19.40;14.73;;;;;;;;;;5066719;28;20234;-79
2022/03/23 21:47:29;;;;;;;16.43;14.40;;;;;;;;;;5072100;28;20201;-79
2022/03/23 21:50:00;;;;;;;18.77;14.50;;;;;;;;;;5064617;28;20225;-79
2022/03/23 21:52:38;;;;;;;18.93;14.70;;;;;;;;;;5068841;28;20224;-80
2022/03/23 21:55:06;;;;;;;21.33;15.73;;;;;;;;;;5068534;28;20224;-80
2022/03/23 21:57:36;;;;;;;23.13;14.83;;;;;;;;;;5073052;28;20208;-79
2022/03/23 22:00:05;;;;;;;19.20;14.43;;;;;;;;;;5068891;28;20244;-79
2022/03/23 22:02:32;;;;;;;18.63;14.50;;;;;;;;;;5073184;28;20229;-79
2022/03/23 22:05:04;;;;;;;18.20;14.60;;;;;;;;;;5070793;28;20311;-80
2022/03/23 22:07:33;;;;;;;17.00;14.17;;;;;;;;;;5073581;28;20208;-79
2022/03/23 22:10:00;;;;;;;19.50;14.47;;;;;;;;;;5065226;28;20257;-79
2022/03/23 22:12:31;;;;;;;16.23;14.17;;;;;;;;;;5058839;28;20681;-79
2022/03/23 22:14:59;;;;;;;17.67;14.10;;;;;;;;;;5058016;28;20239;-80
2022/03/23 22:17:26;;;;;;;20.93;15.00;;;;;;;;;;5058450;28;20667;-79
2022/03/23 22:19:55;;;;;;;19.70;14.70;;;;;;;;;;5057855;28;20201;-79
2022/03/23 22:22:25;;;;;;;17.37;14.50;;;;;;;;;;5055659;28;20202;-79
2022/03/23 22:24:54;;;;;;;19.33;14.70;;;;;;;;;;5054201;28;20248;-79
2022/03/23 22:27:21;;;;;;;17.87;14.50;;;;;;;;;;5060297;28;20205;-78
2022/03/23 22:29:53;;;;;;;17.30;14.17;;;;;;;;;;5055087;28;20311;-79
2022/03/23 22:32:21;;;;;;;19.33;15.30;;;;;;;;;;5057192;28;20197;-79
2022/03/23 22:34:57;;;;;;;18.93;15.03;;;;;;;;;;5055287;28;20229;-79
2022/03/23 22:37:29;;;;;;;18.40;14.47;;;;;;;;;;5055417;28;20201;-79
2022/03/23 22:40:00;;;;;;;16.97;13.70;;;;;;;;;;5055199;28;20216;-79
2022/03/23 22:42:28;;;;;;;22.90;15.60;;;;;;;;;;5061140;28;20237;-78
2022/03/23 22:44:55;;;;;;;19.33;14.93;;;;;;;;;;5054731;28;20229;-80
2022/03/23 22:47:25;;;;;;;18.63;14.63;;;;;;;;;;5055563;28;20213;-79
2022/03/23 22:49:57;;;;;;;18.10;13.70;;;;;;;;;;5054468;28;20232;-78
2022/03/23 22:52:28;;;;;;;22.40;14.70;;;;;;;;;;5058788;28;20209;-79
2022/03/23 22:54:55;;;;;;;16.63;13.37;;;;;;;;;;5055417;28;20232;-79
2022/03/23 22:57:24;;;;;;;15.70;14.03;;;;;;;;;;5055585;28;20300;-79
2022/03/23 22:59:51;;;;;;;18.97;15.17;;;;;;;;;;5054818;28;20278;-78
2022/03/23 23:02:18;;;;;;;20.80;14.40;;;;;;;;;;5054204;28;20204;-79
2022/03/23 23:04:46;;;;;;;19.20;15.70;;;;;;;;;;5052260;28;20248;-79
2022/03/23 23:07:16;;;;;;;19.90;14.33;;;;;;;;;;5052813;28;20205;-78
2022/03/23 23:09:43;;;;;;;20.20;16.53;;;;;;;;;;5051679;28;20279;-79
2022/03/23 23:12:13;;;;;;;17.70;14.43;;;;;;;;;;5052937;28;20292;-79
2022/03/23 23:14:42;;;;;;;21.30;16.03;;;;;;;;;;5053984;28;20303;-80
2022/03/23 23:17:10;;;;;;;23.57;16.03;;;;;;;;;;5054550;28;20197;-80
2022/03/23 23:19:38;;;;;;;31.23;15.73;;;;;;;;;;5061373;28;20205;-79
2022/03/23 23:22:06;;;;;;;22.83;16.23;;;;;;;;;;5054229;28;20684;-80
2022/03/23 23:24:33;;;;;;;22.17;15.23;;;;;;;;;;5058307;28;20223;-80
2022/03/23 23:27:01;;;;;;;18.90;14.57;;;;;;;;;;5053358;28;20293;-78
2022/03/23 23:29:36;;;;;;;20.07;15.40;;;;;;;;;;5056051;28;20300;-80
2022/03/23 23:32:05;;;;;;;22.87;15.10;;;;;;;;;;5053228;28;20287;-80
2022/03/23 23:34:32;;;;;;;18.90;14.93;;;;;;;;;;5048519;28;20231;-79
2022/03/23 23:37:03;;;;;;;20.10;15.13;;;;;;;;;;5052789;28;20209;-79
2022/03/23 23:39:30;;;;;;;19.90;15.73;;;;;;;;;;5050397;28;20228;-80
2022/03/23 23:41:57;;;;;;;23.00;15.70;;;;;;;;;;5046320;28;20334;-80
2022/03/23 23:44:26;;;;;;;19.93;15.37;;;;;;;;;;5058094;28;20227;-79
2022/03/23 23:46:53;;;;;;;19.03;14.70;;;;;;;;;;5054005;28;20292;-78
2022/03/23 23:49:22;;;;;;;20.03;14.53;;;;;;;;;;5050549;28;20243;-77
2022/03/23 23:51:49;;;;;;;18.70;15.07;;;;;;;;;;5047127;28;20278;-78
2022/03/23 23:54:17;;;;;;;18.90;15.27;;;;;;;;;;5049355;28;20239;-78
2022/03/23 23:56:44;;;;;;;20.30;14.97;;;;;;;;;;5053015;28;20225;-78
2022/03/23 23:59:11;;;;;;;19.90;15.70;;;;;;;;;;5053543;28;20205;-78
